Owatonna, Minnesota
Current Conditions -  °F | °C
As of 8:55 AM on Monday 22 Dec 2014 (Local Time) from KOWA Reporting Station
Light Rain Light Rain  
Wind Chill: 26°   Ceiling: 600
Heat Index: 36°   Visibility: 2mi
Dew Point: 34°   Wind: 16mph
Humidity: 93%   Direction: 130°SE
Pressure: 29.64"   Gusts: 21mph
Location:  44.09°N, 93.23°W
Report Text: KOWA 221455Z AUTO 13014G18KT 2SM -RA OVC006 02/01 A2964 RMK AO2
Loading
Personal Weather Stations






























Interactive Weather Map New forecast layout! Learn more

10-Day Weather Forecast

Advertisements
Track Severe Weather on mobile